createdAt,value
2022-10-25T00:01:48.415Z,3.22
2022-10-25T00:04:52.889Z,2.05
2022-10-25T00:07:57.097Z,2.70
2022-10-25T00:11:00.477Z,2.55
2022-10-25T00:14:06.871Z,4.03
2022-10-25T00:17:11.511Z,5.22
2022-10-25T00:20:15.659Z,4.90
2022-10-25T00:23:19.158Z,4.35
2022-10-25T00:26:23.651Z,4.05
2022-10-25T00:29:27.207Z,3.17
2022-10-25T00:32:31.164Z,4.30
2022-10-25T00:35:37.128Z,2.25
2022-10-25T00:38:41.456Z,3.05
2022-10-25T00:41:45.192Z,4.65
2022-10-25T00:44:56.866Z,2.90
2022-10-25T00:48:07.311Z,6.10
2022-10-25T00:51:11.083Z,5.13
2022-10-25T00:58:04.775Z,5.63
2022-10-25T01:01:10.899Z,4.68
2022-10-25T01:04:18.595Z,5.80
2022-10-25T01:07:22.338Z,3.47
2022-10-25T01:10:27.202Z,5.38
2022-10-25T01:13:30.898Z,8.32
2022-10-25T01:17:01.430Z,11.85
2022-10-25T01:20:32.469Z,6.80
2022-10-25T01:23:51.483Z,5.93
2022-10-25T01:26:57.727Z,7.35
2022-10-25T01:30:07.503Z,7.80
2022-10-25T01:33:16.699Z,3.95
2022-10-25T01:36:47.640Z,8.48
2022-10-25T01:39:57.231Z,5.65
2022-10-25T01:43:15.135Z,3.90
2022-10-25T01:49:36.740Z,3.28
2022-10-25T01:52:40.472Z,4.55
2022-10-25T01:56:01.360Z,8.18
2022-10-25T01:59:41.476Z,8.05
2022-10-25T02:02:55.946Z,6.93
2022-10-25T02:06:09.149Z,5.80
2022-10-25T02:09:18.183Z,3.03
2022-10-25T02:12:38.019Z,2.45
2022-10-25T02:15:44.939Z,6.57
2022-10-25T02:21:55.291Z,4.47
2022-10-25T02:25:00.656Z,1.92
2022-10-25T02:28:08.959Z,2.78
2022-10-25T02:31:17.879Z,2.20
2022-10-25T02:34:21.543Z,1.25
2022-10-25T02:37:25.325Z,2.03
2022-10-25T02:40:29.102Z,2.15
2022-10-25T02:43:33.058Z,3.80
2022-10-25T02:46:37.219Z,4.78
2022-10-25T02:49:41.108Z,9.02
2022-10-25T02:52:49.142Z,4.85
2022-10-25T02:56:09.877Z,3.65
2022-10-25T02:59:16.549Z,8.35
2022-10-25T03:02:22.502Z,1.50
2022-10-25T03:09:12.218Z,1.52
2022-10-25T03:12:24.936Z,2.35
2022-10-25T03:15:38.468Z,3.00
2022-10-25T03:18:44.019Z,2.25
2022-10-25T03:21:49.570Z,1.08
2022-10-25T03:24:57.107Z,7.95
2022-10-25T03:28:03.225Z,5.18
2022-10-25T03:34:51.053Z,1.75
2022-10-25T03:41:16.738Z,1.20
2022-10-25T03:47:44.657Z,2.83
2022-10-25T03:54:14.581Z,2.10
2022-10-25T03:57:20.022Z,2.05
2022-10-25T04:00:26.968Z,2.15
2022-10-25T04:03:35.014Z,2.60
2022-10-25T04:06:41.822Z,3.67
2022-10-25T04:13:09.683Z,2.72
2022-10-25T04:16:23.474Z,2.50
2022-10-25T04:19:28.995Z,2.45
2022-10-25T04:25:41.208Z,1.55
2022-10-25T04:28:59.138Z,2.38
2022-10-25T04:43:56.587Z,1.48
2022-10-25T04:47:02.135Z,2.58
2022-10-25T04:50:08.595Z,1.92
2022-10-25T04:53:14.570Z,1.15
2022-10-25T04:59:53.561Z,3.78
2022-10-25T05:03:20.419Z,6.90
2022-10-25T05:06:30.645Z,2.47
2022-10-25T05:09:42.661Z,2.35
2022-10-25T05:13:16.232Z,7.55
2022-10-25T05:24:11.820Z,6.82
2022-10-25T05:27:15.621Z,6.25
2022-10-25T05:30:20.653Z,1.80
2022-10-25T05:33:25.022Z,3.17
2022-10-25T05:36:30.166Z,1.80
2022-10-25T05:43:04.476Z,4.68
2022-10-25T06:07:38.424Z,2.03
2022-10-25T06:13:51.572Z,1.25
2022-10-25T06:16:58.444Z,0.98
2022-10-25T06:20:04.012Z,1.20
2022-10-25T06:23:11.111Z,1.83
2022-10-25T06:26:38.233Z,2.80
2022-10-25T06:29:51.884Z,0.98
2022-10-25T06:33:04.453Z,1.45
2022-10-25T06:36:19.623Z,3.35
2022-10-25T06:47:29.430Z,0.77
2022-10-25T06:50:38.946Z,1.10
2022-10-25T06:53:46.136Z,2.78
2022-10-25T07:08:15.365Z,1.98
2022-10-25T07:11:25.972Z,0.93
2022-10-25T07:14:33.254Z,0.65
2022-10-25T07:17:38.658Z,3.92
2022-10-25T07:24:12.725Z,1.13
2022-10-25T07:30:38.268Z,1.10
2022-10-25T10:32:26.038Z,23.15
2022-10-25T10:54:35.582Z,26.55
2022-10-25T10:57:40.116Z,20.80
2022-10-25T11:01:00.496Z,12.68
2022-10-25T11:04:07.184Z,13.50
2022-10-25T11:07:20.852Z,16.85
2022-10-25T11:10:30.258Z,9.73
2022-10-25T11:13:36.692Z,12.32
2022-10-25T11:16:56.504Z,11.38
2022-10-25T11:20:16.195Z,11.13
2022-10-25T11:23:44.618Z,13.23
2022-10-25T11:27:13.033Z,16.73
2022-10-25T11:30:25.271Z,15.93
2022-10-25T11:34:07.966Z,21.13
2022-10-25T11:37:30.039Z,23.88
2022-10-25T11:40:42.311Z,24.55
2022-10-25T11:43:48.718Z,16.40
2022-10-25T11:47:04.715Z,15.07
2022-10-25T11:50:19.972Z,15.45
2022-10-25T11:54:01.077Z,12.15
2022-10-25T11:57:43.874Z,8.82
2022-10-25T12:00:56.082Z,14.73
2022-10-25T12:04:09.644Z,15.00
2022-10-25T12:07:38.726Z,16.10
2022-10-25T12:11:05.192Z,14.27
2022-10-25T12:14:14.666Z,16.92
2022-10-25T12:17:33.270Z,15.35
2022-10-25T12:20:39.982Z,17.60
2022-10-25T12:23:50.417Z,5.95
2022-10-25T12:26:57.190Z,14.52
2022-10-25T12:30:08.257Z,15.30
2022-10-25T12:33:25.042Z,13.98
2022-10-25T12:36:45.659Z,12.73
2022-10-25T12:39:49.255Z,18.08
2022-10-25T12:42:58.866Z,13.55
2022-10-25T12:46:35.163Z,12.90
2022-10-25T12:50:09.233Z,11.73
2022-10-25T12:53:33.000Z,11.63
2022-10-25T12:57:03.753Z,14.27
2022-10-25T13:00:22.062Z,8.27
2022-10-25T13:03:58.944Z,9.77
2022-10-25T13:07:05.927Z,12.73
2022-10-25T13:10:20.289Z,21.15
2022-10-25T13:13:28.462Z,15.98
2022-10-25T13:16:35.047Z,18.08
2022-10-25T13:19:54.995Z,19.15
2022-10-25T13:22:58.888Z,15.57
2022-10-25T13:26:06.546Z,14.02
2022-10-25T13:29:47.557Z,11.65
2022-10-25T13:33:24.984Z,16.83
2022-10-25T13:36:54.838Z,14.55
2022-10-25T13:40:08.054Z,10.32
2022-10-25T13:43:23.945Z,7.38
2022-10-25T13:46:41.918Z,7.25
2022-10-25T13:49:49.626Z,10.73
2022-10-25T13:53:03.223Z,14.02
2022-10-25T13:56:19.067Z,7.80
2022-10-25T13:59:47.358Z,11.50
2022-10-25T14:03:16.836Z,6.65
2022-10-25T14:06:29.972Z,4.03
2022-10-25T14:09:40.498Z,5.40
2022-10-25T14:12:49.385Z,8.48
2022-10-25T14:15:59.560Z,7.10
2022-10-25T14:19:45.495Z,7.18
2022-10-25T14:23:01.445Z,8.67
2022-10-25T14:26:13.525Z,6.93
2022-10-25T14:29:21.859Z,10.95
2022-10-25T14:32:25.588Z,13.88
2022-10-25T14:35:48.458Z,15.57
2022-10-25T14:39:04.324Z,6.32
2022-10-25T14:42:17.590Z,7.85
2022-10-25T14:45:25.277Z,8.52
2022-10-25T14:48:30.340Z,14.85
2022-10-25T14:51:38.054Z,7.55
2022-10-25T14:54:42.602Z,19.27
2022-10-25T14:57:47.477Z,21.80
2022-10-25T15:00:59.986Z,10.93
2022-10-25T15:04:03.758Z,13.00
2022-10-25T15:07:17.528Z,10.85
2022-10-25T15:10:41.868Z,7.68
2022-10-25T15:13:50.256Z,9.05
2022-10-25T15:17:03.092Z,13.35
2022-10-25T15:20:15.151Z,9.25
2022-10-25T15:23:25.055Z,14.50
2022-10-25T15:26:33.551Z,9.95
2022-10-25T15:29:41.776Z,7.43
2022-10-25T15:32:45.831Z,5.03
2022-10-25T15:36:09.072Z,5.25
2022-10-25T15:39:28.082Z,5.28
2022-10-25T15:42:32.697Z,6.10
2022-10-25T15:45:38.237Z,5.20
2022-10-25T15:48:43.922Z,7.95
2022-10-25T15:51:47.449Z,5.70
2022-10-25T15:54:51.734Z,5.38
2022-10-25T15:57:55.897Z,8.27
2022-10-25T16:01:01.217Z,4.38
2022-10-25T16:04:07.713Z,10.32
2022-10-25T16:07:17.228Z,10.27
2022-10-25T16:10:29.856Z,4.03
2022-10-25T16:13:40.404Z,6.53
2022-10-25T16:16:47.088Z,3.38
2022-10-25T16:19:52.056Z,5.05
2022-10-25T16:22:56.534Z,8.40
2022-10-25T16:26:00.648Z,6.68
2022-10-25T16:29:04.438Z,3.45
2022-10-25T16:32:08.401Z,4.57
2022-10-25T16:35:14.254Z,5.57
2022-10-25T16:38:18.362Z,7.50
2022-10-25T16:41:27.253Z,5.22
2022-10-25T16:44:31.360Z,4.57
2022-10-25T16:47:34.699Z,6.05
2022-10-25T16:50:38.943Z,4.45
2022-10-25T16:53:42.469Z,7.30
2022-10-25T16:56:46.540Z,4.80
2022-10-25T16:59:51.190Z,6.55
2022-10-25T17:02:54.967Z,7.38
2022-10-25T17:06:00.346Z,5.15
2022-10-25T17:09:04.174Z,5.22
2022-10-25T17:12:07.318Z,6.13
2022-10-25T17:15:11.657Z,8.00
2022-10-25T17:18:19.150Z,5.15
2022-10-25T17:21:24.344Z,4.82
2022-10-25T17:24:28.708Z,5.22
2022-10-25T17:27:33.077Z,6.00
2022-10-25T17:30:36.470Z,3.78
2022-10-25T17:33:41.652Z,8.35
2022-10-25T17:36:44.656Z,4.85
2022-10-25T17:39:48.019Z,6.88
2022-10-25T17:42:52.861Z,2.55
2022-10-25T17:46:08.611Z,8.07
2022-10-25T17:49:11.928Z,5.80
2022-10-25T17:52:19.132Z,6.68
2022-10-25T17:55:22.254Z,8.15
2022-10-25T17:58:25.835Z,9.52
2022-10-25T18:01:32.357Z,11.75
2022-10-25T18:04:53.328Z,7.97
2022-10-25T18:07:57.812Z,8.85
2022-10-25T18:11:09.596Z,13.55
2022-10-25T18:14:12.983Z,8.40
2022-10-25T18:17:16.984Z,8.95
2022-10-25T18:20:20.750Z,8.60
2022-10-25T18:23:24.374Z,11.35
2022-10-25T18:26:28.916Z,8.45
2022-10-25T18:29:38.710Z,20.15
2022-10-25T18:32:42.863Z,11.88
2022-10-25T18:35:46.859Z,8.35
2022-10-25T18:38:51.084Z,9.57
2022-10-25T18:41:56.521Z,9.88
2022-10-25T18:45:00.342Z,7.18
2022-10-25T18:48:04.317Z,7.00
2022-10-25T18:51:11.967Z,8.20
2022-10-25T18:54:16.016Z,5.15
2022-10-25T18:57:19.853Z,7.30
2022-10-25T19:00:28.629Z,8.40
2022-10-25T19:03:31.982Z,6.18
2022-10-25T19:06:36.166Z,5.43
2022-10-25T19:09:39.855Z,4.07
2022-10-25T19:12:43.591Z,4.85
2022-10-25T19:15:47.799Z,9.13
2022-10-25T19:18:51.780Z,11.80
2022-10-25T19:21:55.087Z,6.05
2022-10-25T19:28:07.176Z,7.18
2022-10-25T19:31:18.806Z,6.45
2022-10-25T19:34:22.174Z,6.45
2022-10-25T19:37:26.221Z,8.73
2022-10-25T19:40:29.885Z,6.55
2022-10-25T19:43:34.948Z,12.27
2022-10-25T19:46:38.581Z,6.90
2022-10-25T19:49:42.751Z,15.35
2022-10-25T19:52:46.988Z,6.25
2022-10-25T19:56:08.161Z,7.60
2022-10-25T19:59:12.374Z,5.15
2022-10-25T20:02:15.885Z,6.90
2022-10-25T20:05:19.121Z,5.10
2022-10-25T20:08:22.825Z,6.43
2022-10-25T20:11:26.841Z,4.60
2022-10-25T20:14:31.717Z,3.58
2022-10-25T20:17:34.880Z,5.13
2022-10-25T20:20:39.923Z,5.45
2022-10-25T20:23:50.693Z,5.97
2022-10-25T20:26:54.167Z,6.28
2022-10-25T20:29:57.878Z,5.85
2022-10-25T20:33:02.747Z,7.88
2022-10-25T20:36:10.484Z,2.85
2022-10-25T20:39:14.356Z,7.13
2022-10-25T20:42:18.244Z,7.65
2022-10-25T20:45:21.317Z,6.95
2022-10-25T20:48:24.396Z,4.63
2022-10-25T20:51:28.741Z,6.25
2022-10-25T20:54:31.820Z,7.15
2022-10-25T20:57:38.170Z,6.00
2022-10-25T21:00:41.970Z,4.88
2022-10-25T21:03:45.717Z,6.22
2022-10-25T21:06:49.786Z,8.70
2022-10-25T21:09:53.318Z,10.35
2022-10-25T21:12:56.273Z,5.20
2022-10-25T21:16:05.336Z,9.90
2022-10-25T21:19:08.963Z,13.98
2022-10-25T21:22:12.373Z,7.38
2022-10-25T21:25:16.565Z,8.95
2022-10-25T21:28:19.851Z,14.05
2022-10-25T21:31:23.597Z,11.57
2022-10-25T21:34:26.868Z,9.98
2022-10-25T21:37:30.507Z,10.73
2022-10-25T21:40:33.961Z,15.55
2022-10-25T21:43:38.729Z,5.07
2022-10-25T21:46:42.318Z,8.52
2022-10-25T21:49:45.578Z,8.25
2022-10-25T21:52:49.648Z,8.43
2022-10-25T21:56:13.721Z,6.55
2022-10-25T21:59:17.899Z,8.32
2022-10-25T22:02:21.507Z,10.65
2022-10-25T22:05:25.662Z,5.00
2022-10-25T22:08:28.611Z,17.58
2022-10-25T22:11:35.574Z,18.70
2022-10-25T22:14:39.446Z,9.65
2022-10-25T22:17:43.638Z,13.90
2022-10-25T22:20:54.688Z,13.38
2022-10-25T22:23:59.303Z,5.85
2022-10-25T22:27:02.690Z,8.38
2022-10-25T22:30:07.183Z,10.93
2022-10-25T22:33:12.803Z,11.15
2022-10-25T22:36:18.192Z,14.05
2022-10-25T22:39:21.088Z,14.77
2022-10-25T22:42:26.092Z,16.20
2022-10-25T22:45:29.682Z,13.25
2022-10-25T22:48:38.208Z,18.00
2022-10-25T22:51:41.846Z,15.27
2022-10-25T22:54:46.192Z,15.98
2022-10-25T22:57:49.732Z,19.65
2022-10-25T23:00:58.672Z,14.43
2022-10-25T23:04:04.719Z,10.35
2022-10-25T23:07:08.700Z,13.80
2022-10-25T23:10:11.635Z,19.42
2022-10-25T23:13:14.776Z,22.15
2022-10-25T23:16:19.351Z,23.83
2022-10-25T23:19:23.129Z,20.95
2022-10-25T23:22:26.990Z,19.55
2022-10-25T23:25:30.471Z,24.25
2022-10-25T23:28:39.808Z,19.08
2022-10-25T23:31:49.135Z,20.00
2022-10-25T23:34:58.886Z,23.45
2022-10-25T23:38:05.355Z,25.70
2022-10-25T23:44:20.245Z,10.38
2022-10-25T23:50:33.404Z,14.65
2022-10-25T23:53:39.336Z,12.00
2022-10-25T23:56:43.239Z,12.10
2022-10-25T23:59:47.552Z,9.70
